SPMKA EPDE-EPDE
Flight info
| Callsign | SPMKA |
|---|---|
| Flight time | 0h 24m |
| Altitude | 1500 |
| Route | DCT |
| Aircraft | DA40/L-VGD/A |
Departure
| Time | 2026-05-04 12:01 |
|---|---|
| Airport | Deblin Military Air Base (EPDE) |
Arrival
| Time | 2026-05-04 12:25 |
|---|---|
| Airport | Deblin Military Air Base (EPDE) |
| Time | Latitude | Longitude | Altitude | Speed | Heading |
|---|---|---|---|---|---|
| 2026-05-04 11:49 | 51.55398 | 21.87547 | 378 ft | 0 kts | 352° |
| 2026-05-04 11:55 | 51.55216 | 21.88258 | 378 ft | 24 kts | 121° |
| 2026-05-04 11:55 | 51.55132 | 21.88483 | 378 ft | 22 kts | 121° |
| 2026-05-04 11:56 | 51.55056 | 21.88686 | 378 ft | 22 kts | 122° |
| 2026-05-04 11:56 | 51.54978 | 21.88901 | 378 ft | 23 kts | 119° |
| 2026-05-04 11:56 | 51.54902 | 21.89104 | 378 ft | 20 kts | 121° |
| 2026-05-04 11:56 | 51.54823 | 21.89314 | 378 ft | 23 kts | 120° |
| 2026-05-04 11:57 | 51.54763 | 21.89482 | 378 ft | 11 kts | 124° |
| 2026-05-04 11:57 | 51.54782 | 21.89565 | 378 ft | 6 kts | 29° |
| 2026-05-04 11:57 | 51.54824 | 21.89601 | 378 ft | 11 kts | 31° |
| 2026-05-04 11:57 | 51.54847 | 21.89624 | 378 ft | 0 kts | 32° |
| 2026-05-04 11:58 | 51.54856 | 21.89633 | 378 ft | 4 kts | 34° |
| 2026-05-04 11:58 | 51.54913 | 21.89675 | 376 ft | 11 kts | 355° |
| 2026-05-04 11:59 | 51.54970 | 21.89582 | 376 ft | 13 kts | 301° |
| 2026-05-04 11:59 | 51.55057 | 21.89348 | 376 ft | 45 kts | 302° |
| 2026-05-04 11:59 | 51.55285 | 21.88755 | 424 ft | 73 kts | 290° |
| 2026-05-04 11:59 | 51.55560 | 21.88046 | 614 ft | 75 kts | 289° |
| 2026-05-04 12:00 | 51.55816 | 21.87285 | 701 ft | 79 kts | 288° |
| 2026-05-04 12:00 | 51.56074 | 21.86504 | 777 ft | 80 kts | 290° |
| 2026-05-04 12:00 | 51.56495 | 21.85928 | 923 ft | 92 kts | 343° |
| 2026-05-04 12:00 | 51.57123 | 21.86400 | 988 ft | 107 kts | 34° |
| 2026-05-04 12:01 | 51.57708 | 21.87128 | 1095 ft | 105 kts | 36° |
| 2026-05-04 12:01 | 51.57901 | 21.88154 | 1227 ft | 96 kts | 115° |
| 2026-05-04 12:02 | 51.54782 | 21.93577 | 1060 ft | 117 kts | 210° |
| 2026-05-04 12:03 | 51.54251 | 21.92912 | 960 ft | 84 kts | 246° |
| 2026-05-04 12:03 | 51.54242 | 21.91967 | 714 ft | 87 kts | 270° |
| 2026-05-04 12:03 | 51.54433 | 21.91063 | 517 ft | 83 kts | 288° |
| 2026-05-04 12:03 | 51.54702 | 21.90315 | 380 ft | 67 kts | 291° |
| 2026-05-04 12:04 | 51.54930 | 21.89682 | 459 ft | 72 kts | 291° |
| 2026-05-04 12:04 | 51.55201 | 21.88972 | 643 ft | 74 kts | 290° |
| 2026-05-04 12:04 | 51.55485 | 21.88267 | 751 ft | 75 kts | 289° |
| 2026-05-04 12:04 | 51.55737 | 21.87525 | 802 ft | 77 kts | 289° |
| 2026-05-04 12:05 | 51.55980 | 21.86764 | 890 ft | 77 kts | 294° |
| 2026-05-04 12:05 | 51.56451 | 21.86299 | 947 ft | 93 kts | 356° |
| 2026-05-04 12:05 | 51.57054 | 21.86792 | 976 ft | 104 kts | 33° |
| 2026-05-04 12:05 | 51.57676 | 21.87493 | 964 ft | 115 kts | 32° |
| 2026-05-04 12:06 | 51.58071 | 21.88546 | 1105 ft | 116 kts | 96° |
| 2026-05-04 12:06 | 51.57767 | 21.89737 | 1154 ft | 121 kts | 126° |
| 2026-05-04 12:06 | 51.57318 | 21.90932 | 1115 ft | 128 kts | 127° |
| 2026-05-04 12:06 | 51.56819 | 21.92072 | 1141 ft | 121 kts | 135° |
| 2026-05-04 12:07 | 51.56253 | 21.93072 | 1161 ft | 122 kts | 137° |
| 2026-05-04 12:07 | 51.55681 | 21.94103 | 1113 ft | 124 kts | 138° |
| 2026-05-04 12:07 | 51.54938 | 21.94645 | 1025 ft | 114 kts | 185° |
| 2026-05-04 12:07 | 51.54207 | 21.94308 | 997 ft | 108 kts | 208° |
| 2026-05-04 12:08 | 51.53852 | 21.93498 | 973 ft | 92 kts | 263° |
| 2026-05-04 12:08 | 51.53942 | 21.92444 | 785 ft | 98 kts | 282° |
| 2026-05-04 12:08 | 51.54261 | 21.91530 | 582 ft | 89 kts | 291° |
| 2026-05-04 12:08 | 51.54554 | 21.90724 | 408 ft | 76 kts | 294° |
| 2026-05-04 12:09 | 51.54794 | 21.90083 | 399 ft | 68 kts | 291° |
| 2026-05-04 12:09 | 51.55051 | 21.89410 | 576 ft | 74 kts | 291° |
| 2026-05-04 12:09 | 51.55321 | 21.88708 | 700 ft | 72 kts | 285° |
| 2026-05-04 12:09 | 51.55544 | 21.88017 | 808 ft | 70 kts | 284° |
| 2026-05-04 12:10 | 51.55815 | 21.87324 | 837 ft | 78 kts | 294° |
| 2026-05-04 12:10 | 51.56116 | 21.86602 | 942 ft | 76 kts | 294° |
| 2026-05-04 12:10 | 51.56601 | 21.86188 | 1013 ft | 93 kts | 359° |
| 2026-05-04 12:10 | 51.57197 | 21.86807 | 1009 ft | 111 kts | 37° |
| 2026-05-04 12:11 | 51.57773 | 21.87697 | 1083 ft | 115 kts | 64° |
| 2026-05-04 12:11 | 51.57720 | 21.88924 | 1175 ft | 118 kts | 120° |
| 2026-05-04 12:11 | 51.57314 | 21.90119 | 1240 ft | 125 kts | 128° |
| 2026-05-04 12:11 | 51.56868 | 21.91329 | 1242 ft | 127 kts | 126° |
| 2026-05-04 12:12 | 51.56386 | 21.92509 | 1215 ft | 125 kts | 129° |
| 2026-05-04 12:12 | 51.55892 | 21.93649 | 1256 ft | 121 kts | 130° |
| 2026-05-04 12:12 | 51.55226 | 21.94214 | 1255 ft | 104 kts | 188° |
| 2026-05-04 12:12 | 51.54597 | 21.93795 | 1125 ft | 97 kts | 213° |
| 2026-05-04 12:13 | 51.54078 | 21.93241 | 952 ft | 77 kts | 232° |
| 2026-05-04 12:14 | 51.55618 | 21.87938 | 796 ft | 76 kts | 295° |
| 2026-05-04 12:15 | 51.55918 | 21.87217 | 853 ft | 79 kts | 294° |
| 2026-05-04 12:15 | 51.56306 | 21.86602 | 934 ft | 88 kts | 339° |
| 2026-05-04 12:15 | 51.56923 | 21.87021 | 918 ft | 110 kts | 35° |
| 2026-05-04 12:15 | 51.57528 | 21.87822 | 983 ft | 116 kts | 45° |
| 2026-05-04 12:16 | 51.57727 | 21.89038 | 1112 ft | 117 kts | 111° |
| 2026-05-04 12:16 | 51.57355 | 21.90222 | 1175 ft | 121 kts | 125° |
| 2026-05-04 12:16 | 51.56916 | 21.91390 | 1141 ft | 125 kts | 124° |
| 2026-05-04 12:16 | 51.56461 | 21.92576 | 1200 ft | 126 kts | 125° |
| 2026-05-04 12:17 | 51.56002 | 21.93782 | 1209 ft | 127 kts | 124° |
| 2026-05-04 12:17 | 51.55550 | 21.95012 | 1272 ft | 129 kts | 126° |
| 2026-05-04 12:17 | 51.55100 | 21.96242 | 1406 ft | 125 kts | 131° |
| 2026-05-04 12:17 | 51.54407 | 21.96763 | 1485 ft | 109 kts | 197° |
| 2026-05-04 12:18 | 51.53758 | 21.96127 | 1334 ft | 109 kts | 219° |
| 2026-05-04 12:18 | 51.53200 | 21.95331 | 1241 ft | 105 kts | 242° |
| 2026-05-04 12:18 | 51.53201 | 21.94211 | 1067 ft | 111 kts | 294° |
| 2026-05-04 12:18 | 51.53666 | 21.93104 | 810 ft | 125 kts | 299° |
| 2026-05-04 12:19 | 51.54181 | 21.92019 | 711 ft | 119 kts | 300° |
| 2026-05-04 12:19 | 51.54616 | 21.91015 | 511 ft | 100 kts | 294° |
| 2026-05-04 12:19 | 51.54951 | 21.90097 | 422 ft | 95 kts | 296° |
| 2026-05-04 12:19 | 51.55285 | 21.89188 | 464 ft | 95 kts | 295° |
| 2026-05-04 12:20 | 51.55624 | 21.88255 | 622 ft | 99 kts | 295° |
| 2026-05-04 12:20 | 51.55970 | 21.87317 | 753 ft | 95 kts | 294° |
| 2026-05-04 12:20 | 51.56313 | 21.86446 | 885 ft | 92 kts | 296° |
| 2026-05-04 12:20 | 51.56685 | 21.85591 | 972 ft | 93 kts | 295° |
| 2026-05-04 12:21 | 51.57075 | 21.84778 | 1096 ft | 93 kts | 297° |
| 2026-05-04 12:21 | 51.57457 | 21.83920 | 1256 ft | 97 kts | 297° |
| 2026-05-04 12:21 | 51.57849 | 21.83023 | 1452 ft | 100 kts | 307° |
| 2026-05-04 12:21 | 51.58576 | 21.82635 | 1494 ft | 130 kts | 1° |
| 2026-05-04 12:22 | 51.59379 | 21.83452 | 1485 ft | 142 kts | 37° |
| 2026-05-04 12:22 | 51.59687 | 21.84838 | 1496 ft | 140 kts | 110° |
| 2026-05-04 12:22 | 51.59321 | 21.86246 | 1528 ft | 135 kts | 122° |
| 2026-05-04 12:22 | 51.58803 | 21.87522 | 1384 ft | 136 kts | 130° |
| 2026-05-04 12:23 | 51.58264 | 21.88682 | 1243 ft | 124 kts | 135° |
| 2026-05-04 12:23 | 51.57756 | 21.89721 | 1125 ft | 113 kts | 134° |
| 2026-05-04 12:23 | 51.57286 | 21.90709 | 958 ft | 108 kts | 135° |
| 2026-05-04 12:23 | 51.56821 | 21.91598 | 898 ft | 101 kts | 138° |
| 2026-05-04 12:24 | 51.56339 | 21.92293 | 793 ft | 86 kts | 168° |
| 2026-05-04 12:24 | 51.55802 | 21.92379 | 676 ft | 75 kts | 201° |
| 2026-05-04 12:24 | 51.55302 | 21.92193 | 600 ft | 71 kts | 207° |
| 2026-05-04 12:24 | 51.54861 | 21.91891 | 574 ft | 67 kts | 214° |
| 2026-05-04 12:25 | 51.54523 | 21.91402 | 491 ft | 67 kts | 245° |
| 2026-05-04 12:25 | 51.54585 | 21.90668 | 419 ft | 68 kts | 283° |
| 2026-05-04 12:25 | 51.54764 | 21.90129 | 379 ft | 38 kts | 300° |
| 2026-05-04 12:25 | 51.54861 | 21.89866 | 378 ft | 18 kts | 300° |
| 2026-05-04 12:26 | 51.54901 | 21.89736 | 377 ft | 9 kts | 280° |
| 2026-05-04 12:26 | 51.54882 | 21.89660 | 377 ft | 5 kts | 215° |
| 2026-05-04 12:26 | 51.54851 | 21.89630 | 378 ft | 7 kts | 210° |
| 2026-05-04 12:26 | 51.54799 | 21.89580 | 378 ft | 11 kts | 211° |
| 2026-05-04 12:27 | 51.54733 | 21.89560 | 378 ft | 6 kts | 128° |
| 2026-05-04 12:27 | 51.54689 | 21.89676 | 378 ft | 18 kts | 121° |
| 2026-05-04 12:27 | 51.54633 | 21.89826 | 378 ft | 13 kts | 121° |
| 2026-05-04 12:27 | 51.54598 | 21.89926 | 378 ft | 11 kts | 120° |
| 2026-05-04 12:28 | 51.54550 | 21.90054 | 378 ft | 16 kts | 121° |
| 2026-05-04 12:28 | 51.54489 | 21.90213 | 378 ft | 16 kts | 117° |
| 2026-05-04 12:28 | 51.54442 | 21.90343 | 378 ft | 11 kts | 120° |
| 2026-05-04 12:28 | 51.54428 | 21.90426 | 378 ft | 4 kts | 64° |
| 2026-05-04 12:29 | 51.54448 | 21.90460 | 378 ft | 5 kts | 32° |
| 2026-05-04 12:29 | 51.54484 | 21.90495 | 378 ft | 7 kts | 31° |
| 2026-05-04 12:29 | 51.54517 | 21.90528 | 377 ft | 4 kts | 32° |
| 2026-05-04 12:29 | 51.54520 | 21.90531 | 377 ft | 0 kts | 33° |
| 2026-05-04 12:30 | 51.54521 | 21.90532 | 375 ft | 2 kts | 30° |
| 2026-05-04 12:30 | 51.54522 | 21.90533 | 375 ft | 0 kts | 31° |
| 2026-05-04 12:34 | 51.54523 | 21.90533 | 375 ft | 2 kts | 30° |
| 2026-05-04 12:34 | 51.54566 | 21.90573 | 376 ft | 11 kts | 10° |
| 2026-05-04 12:34 | 51.54613 | 21.90545 | 376 ft | 12 kts | 301° |
| 2026-05-04 12:34 | 51.54698 | 21.90312 | 375 ft | 43 kts | 301° |
| 2026-05-04 12:35 | 51.54916 | 21.89733 | 415 ft | 72 kts | 294° |
| 2026-05-04 12:35 | 51.55188 | 21.89014 | 601 ft | 78 kts | 294° |
| 2026-05-04 12:35 | 51.55489 | 21.88254 | 784 ft | 82 kts | 292° |
| 2026-05-04 12:35 | 51.55805 | 21.87501 | 879 ft | 80 kts | 291° |
| 2026-05-04 12:36 | 51.56120 | 21.86784 | 988 ft | 78 kts | 296° |
| 2026-05-04 12:36 | 51.56203 | 21.86030 | 1082 ft | 74 kts | 238° |
| 2026-05-04 12:36 | 51.55756 | 21.85598 | 1133 ft | 82 kts | 205° |
| 2026-05-04 12:36 | 51.55189 | 21.85281 | 1164 ft | 94 kts | 196° |
| 2026-05-04 12:37 | 51.54655 | 21.85901 | 1376 ft | 112 kts | 124° |
| 2026-05-04 12:37 | 51.54307 | 21.87086 | 1420 ft | 122 kts | 121° |
| 2026-05-04 12:37 | 51.53970 | 21.88368 | 1363 ft | 127 kts | 119° |
| 2026-05-04 12:37 | 51.53566 | 21.89645 | 1217 ft | 128 kts | 126° |
| 2026-05-04 12:38 | 51.53102 | 21.90825 | 1079 ft | 120 kts | 128° |
| 2026-05-04 12:38 | 51.53110 | 21.92049 | 1028 ft | 116 kts | 49° |
| 2026-05-04 12:38 | 51.53789 | 21.92469 | 904 ft | 102 kts | 334° |
| 2026-05-04 12:38 | 51.54223 | 21.91686 | 633 ft | 89 kts | 296° |
| 2026-05-04 12:39 | 51.54468 | 21.90964 | 463 ft | 67 kts | 286° |
| 2026-05-04 12:39 | 51.54685 | 21.90360 | 377 ft | 48 kts | 299° |
| 2026-05-04 12:39 | 51.54770 | 21.90120 | 379 ft | 13 kts | 300° |
| 2026-05-04 12:39 | 51.54810 | 21.90011 | 378 ft | 11 kts | 303° |
| 2026-05-04 12:40 | 51.54856 | 21.89889 | 378 ft | 14 kts | 300° |
| 2026-05-04 12:40 | 51.54902 | 21.89754 | 377 ft | 11 kts | 284° |
| 2026-05-04 12:40 | 51.54893 | 21.89674 | 376 ft | 9 kts | 234° |
| 2026-05-04 12:40 | 51.54847 | 21.89623 | 378 ft | 11 kts | 208° |
| 2026-05-04 12:41 | 51.54783 | 21.89566 | 378 ft | 7 kts | 205° |
| 2026-05-04 12:41 | 51.54744 | 21.89545 | 378 ft | 5 kts | 159° |
| 2026-05-04 12:41 | 51.54701 | 21.89547 | 378 ft | 9 kts | 218° |
| 2026-05-04 12:41 | 51.54664 | 21.89518 | 378 ft | 2 kts | 190° |
| 2026-05-04 12:42 | 51.54647 | 21.89506 | 378 ft | 0 kts | 212° |
| 2026-05-04 12:42 | 51.54645 | 21.89505 | 378 ft | 1 kts | 212° |
| 2026-05-04 12:42 | 51.54641 | 21.89500 | 378 ft | 0 kts | 213° |